Time;durP1;ratioP1;P1;durP2;ratioP2;P2;SDS_P1;SDS_P2;PMS_P1;PMS_P2;Temp;Humidity;BMP_temperature;BMP_pressure;BME280_temperature;BME280_humidity;BME280_pressure;Samples;Min_cycle;Max_cycle;Signal;HPM_P1;HPM_P2
2023/11/20 00:04:18;;;;;;;1.38;0.88;;;;;;;11.68;57.53;99404.25;10517448;28;20072;-68
2023/11/20 00:09:20;;;;;;;4.82;1.83;;;;;;;11.74;57.37;99416.09;10517017;28;20044;-68
2023/11/20 00:14:22;;;;;;;2.97;1.15;;;;;;;11.80;57.36;99389.44;10499255;28;20508;-68
2023/11/20 00:19:24;;;;;;;6.75;1.48;;;;;;;11.67;57.80;99397.34;10516305;28;20052;-68
2023/11/20 00:24:26;;;;;;;3.65;1.00;;;;;;;11.53;58.24;99396.66;10517110;28;20058;-68
2023/11/20 00:29:28;;;;;;;2.42;1.38;;;;;;;11.67;58.12;99392.13;10498610;28;20155;-69
2023/11/20 00:34:30;;;;;;;3.33;0.88;;;;;;;11.60;58.30;99397.91;10516825;28;20102;-67
2023/11/20 00:39:32;;;;;;;3.20;1.20;;;;;;;11.44;58.67;99373.78;10515283;28;20087;-68
2023/11/20 00:44:34;;;;;;;5.55;1.15;;;;;;;11.60;58.30;99384.81;10498348;28;20047;-68
2023/11/20 00:49:37;;;;;;;2.15;1.20;;;;;;;11.59;58.41;99393.59;10515631;28;20469;-69
2023/11/20 00:54:39;;;;;;;3.08;0.88;;;;;;;11.54;58.54;99396.56;10497244;28;20232;-68
2023/11/20 00:59:41;;;;;;;3.88;1.00;;;;;;;11.49;58.65;99392.59;10497705;28;20063;-68
2023/11/20 01:04:43;;;;;;;7.38;1.20;;;;;;;11.53;58.55;99389.66;10516281;28;20390;-68
2023/11/20 01:09:45;;;;;;;2.30;1.02;;;;;;;11.53;58.58;99401.91;10497272;28;20038;-68
2023/11/20 01:14:47;;;;;;;3.55;0.95;;;;;;;11.50;58.76;99402.97;10497988;28;20060;-68
2023/11/20 01:19:49;;;;;;;4.22;1.45;;;;;;;11.68;58.52;99411.28;10480564;28;20052;-68
2023/11/20 01:24:51;;;;;;;2.65;0.88;;;;;;;11.64;58.58;99391.50;10501454;28;20587;-68
2023/11/20 01:29:54;;;;;;;3.85;0.90;;;;;;;11.57;58.47;99396.34;10523142;28;20070;-68
2023/11/20 01:34:57;;;;;;;2.50;1.02;;;;;;;11.65;58.33;99390.53;10523699;28;20044;-68
2023/11/20 01:39:59;;;;;;;5.40;1.08;;;;;;;11.57;58.60;99395.50;10501121;28;20048;-68
2023/11/20 01:45:01;;;;;;;2.22;1.20;;;;;;;11.51;58.78;99402.03;10515829;28;20436;-69
2023/11/20 01:50:07;;;;;;;1.40;0.70;;;;;;;11.48;59.15;99404.84;10522364;28;20525;-69
2023/11/20 01:55:12;;;;;;;1.00;0.80;;;;;;;11.44;59.50;99407.81;10503720;28;20504;-68
2023/11/20 02:00:16;;;;;;;2.90;1.58;;;;;;;11.53;59.08;99405.38;10488441;28;21088;-68
2023/11/20 02:05:19;;;;;;;2.03;0.60;;;;;;;11.53;59.09;99399.28;10503783;28;20044;-69
2023/11/20 02:10:21;;;;;;;4.30;1.13;;;;;;;11.54;59.16;99399.16;10521139;28;20176;-69
2023/11/20 02:15:23;;;;;;;2.75;0.80;;;;;;;11.64;58.89;99407.22;10500533;28;20393;-68
2023/11/20 02:20:25;;;;;;;4.75;0.98;;;;;;;11.51;59.24;99398.56;10518634;28;20074;-69
2023/11/20 02:25:27;;;;;;;5.60;0.85;;;;;;;11.45;59.14;99399.00;10518769;28;20059;-68
2023/11/20 02:30:31;;;;;;;2.28;0.70;;;;;;;11.62;59.04;99386.34;10517542;28;20141;-69
2023/11/20 02:35:33;;;;;;;3.28;1.13;;;;;;;11.55;59.02;99379.91;10516136;28;20048;-69
2023/11/20 02:40:34;;;;;;;2.92;0.70;;;;;;;11.41;59.19;99385.31;10499195;28;20411;-68
2023/11/20 02:45:36;;;;;;;2.60;0.90;;;;;;;11.32;59.67;99395.59;10498881;28;20135;-69
2023/11/20 02:50:38;;;;;;;2.30;0.80;;;;;;;11.34;59.62;99380.63;10518153;28;20046;-68
2023/11/20 02:55:41;;;;;;;0.47;0.47;;;;;;;11.39;59.50;99384.59;10516865;28;20056;-69
2023/11/20 03:00:43;;;;;;;3.10;0.77;;;;;;;11.31;59.77;99389.53;10499797;28;20044;-68
2023/11/20 03:05:45;;;;;;;0.57;0.47;;;;;;;11.35;59.85;99383.13;10498863;28;20130;-68
2023/11/20 03:10:47;;;;;;;1.33;0.43;;;;;;;11.42;59.43;99388.78;10516938;28;20131;-68
2023/11/20 03:15:50;;;;;;;2.67;0.60;;;;;;;11.46;59.61;99382.38;10476402;28;1142154;-68
2023/11/20 03:20:52;;;;;;;2.30;0.90;;;;;;;11.50;59.52;99378.56;10501188;28;20480;-68
2023/11/20 03:25:54;;;;;;;3.20;1.00;;;;;;;11.43;59.75;99367.72;10518399;28;20553;-68
2023/11/20 03:30:56;;;;;;;3.40;0.82;;;;;;;11.42;59.97;99381.72;10517724;28;20574;-69
2023/11/20 03:35:58;;;;;;;2.38;0.90;;;;;;;11.38;60.01;99377.66;10498852;28;20231;-69
2023/11/20 03:41:01;;;;;;;3.28;0.70;;;;;;;11.42;59.90;99378.28;10499269;28;20056;-68
2023/11/20 03:46:03;;;;;;;0.57;0.55;;;;;;;11.29;60.46;99366.06;10516678;28;20117;-68
2023/11/20 03:51:05;;;;;;;2.28;1.15;;;;;;;11.44;60.06;99373.78;10496569;28;20048;-68
2023/11/20 03:56:09;;;;;;;2.25;0.93;;;;;;;11.44;60.13;99382.44;10516679;28;20954;-68
2023/11/20 04:01:14;;;;;;;2.92;1.02;;;;;;;11.40;60.21;99388.03;10517280;28;20087;-68
2023/11/20 04:06:16;;;;;;;1.92;0.80;;;;;;;11.29;61.80;99389.63;10498113;28;20071;-68
2023/11/20 04:11:19;;;;;;;1.23;0.88;;;;;;;11.18;62.13;99393.94;10518070;28;20048;-68
2023/11/20 04:16:20;;;;;;;0.63;0.63;;;;;;;11.12;62.65;99397.00;10516046;28;20638;-68
2023/11/20 04:21:23;;;;;;;2.42;0.75;;;;;;;11.08;62.54;99399.00;10516834;28;20523;-67
2023/11/20 04:26:25;;;;;;;3.65;0.90;;;;;;;11.16;62.49;99398.44;10516261;28;20055;-68
2023/11/20 04:31:27;;;;;;;3.97;0.80;;;;;;;11.06;63.56;99394.81;10516783;28;20484;-69
2023/11/20 04:36:29;;;;;;;2.63;0.80;;;;;;;11.13;62.39;99396.88;10516137;28;20055;-67
2023/11/20 04:41:31;;;;;;;1.27;0.70;;;;;;;11.09;63.11;99395.44;10516549;28;20050;-68
2023/11/20 04:46:34;;;;;;;3.20;1.42;;;;;;;11.04;63.09;99396.69;10515752;28;20083;-68
2023/11/20 04:51:36;;;;;;;3.67;1.08;;;;;;;11.03;63.09;99393.22;10499182;28;20518;-68
2023/11/20 04:56:38;;;;;;;2.25;0.82;;;;;;;11.07;62.81;99397.31;10496767;28;20504;-68
2023/11/20 05:01:40;;;;;;;2.60;0.93;;;;;;;11.06;62.88;99394.81;10513695;28;20055;-68
2023/11/20 05:06:42;;;;;;;5.68;0.90;;;;;;;10.97;63.10;99393.63;10513123;28;20078;-69
2023/11/20 05:11:46;;;;;;;3.22;1.00;;;;;;;11.00;63.35;99396.06;10514302;28;20044;-68
2023/11/20 05:16:48;;;;;;;4.28;0.90;;;;;;;10.98;63.52;99386.63;10514515;28;20471;-67
2023/11/20 05:21:50;;;;;;;4.40;0.98;;;;;;;10.90;63.71;99402.03;10515781;28;20050;-67
2023/11/20 05:26:52;;;;;;;4.38;1.83;;;;;;;10.81;64.27;99395.66;10510816;28;20052;-69
2023/11/20 05:31:54;;;;;;;4.70;1.67;;;;;;;10.79;64.15;99394.91;10512905;28;20819;-68
2023/11/20 05:36:56;;;;;;;3.67;1.35;;;;;;;10.76;64.66;99403.00;10514048;28;20126;-69
2023/11/20 05:41:58;;;;;;;3.03;1.10;;;;;;;10.60;65.04;99409.38;10496703;28;20036;-67
2023/11/20 05:47:00;;;;;;;5.70;1.02;;;;;;;10.62;64.85;99394.41;10513734;28;20521;-69
2023/11/20 05:52:04;;;;;;;3.80;1.55;;;;;;;10.55;65.46;99401.81;10510307;28;20131;-69
2023/11/20 05:57:07;;;;;;;2.67;1.48;;;;;;;10.39;65.98;99395.97;10513323;28;20036;-68
2023/11/20 06:02:09;;;;;;;2.10;0.98;;;;;;;10.14;66.59;99393.31;10513952;28;20159;-68
2023/11/20 06:07:12;;;;;;;4.10;1.17;;;;;;;10.01;66.96;99395.88;10515347;28;20123;-67
2023/11/20 06:12:14;;;;;;;2.75;1.00;;;;;;;9.89;68.63;99401.09;10522334;28;20048;-68
2023/11/20 06:17:17;;;;;;;2.22;1.00;;;;;;;9.90;68.48;99405.38;10521359;28;20044;-67
2023/11/20 06:22:19;;;;;;;1.92;0.90;;;;;;;10.03;67.92;99406.25;10520756;28;20044;-68
2023/11/20 06:27:21;;;;;;;4.53;1.40;;;;;;;10.15;67.56;99400.22;10499565;28;20040;-68
2023/11/20 06:32:24;;;;;;;1.02;0.75;;;;;;;10.16;67.58;99420.16;10521082;28;20056;-69
2023/11/20 06:37:27;;;;;;;2.65;0.80;;;;;;;10.18;67.55;99419.13;10519334;28;20083;-68
2023/11/20 06:42:29;;;;;;;3.25;0.80;;;;;;;10.12;67.83;99422.16;10521457;28;20052;-68
2023/11/20 06:47:30;;;;;;;1.88;1.05;;;;;;;10.13;67.97;99420.38;10502816;28;20384;-70
2023/11/20 06:52:33;;;;;;;1.83;0.90;;;;;;;10.06;68.38;99422.56;10520955;28;20062;-68
2023/11/20 06:57:35;;;;;;;0.93;0.70;;;;;;;10.05;68.34;99417.44;10510797;28;20040;-69
2023/11/20 07:02:42;;;;;;;3.45;1.10;;;;;;;9.94;68.96;99418.13;10516217;28;20118;-68
2023/11/20 07:07:51;;;;;;;1.50;1.00;;;;;;;9.96;68.77;99412.81;10514251;28;20050;-70
2023/11/20 07:12:54;;;;;;;8.85;1.55;;;;;;;9.91;69.01;99409.69;10514197;28;20048;-70
2023/11/20 07:17:56;;;;;;;2.90;1.00;;;;;;;9.89;68.85;99399.31;10516264;28;20043;-70
2023/11/20 07:23:00;;;;;;;5.35;1.05;;;;;;;9.81;68.86;99401.56;10494583;28;20451;-68
2023/11/20 07:28:02;;;;;;;0.47;0.40;;;;;;;9.93;68.17;99406.00;10498492;28;20040;-69
2023/11/20 07:33:04;;;;;;;2.28;1.13;;;;;;;9.79;68.02;99419.13;10517925;28;20046;-70
2023/11/20 07:38:07;;;;;;;6.45;0.77;;;;;;;9.80;68.04;99431.25;10516623;28;20051;-69
2023/11/20 07:43:08;;;;;;;0.77;0.60;;;;;;;9.88;67.46;99439.44;10518001;28;20155;-70
2023/11/20 07:48:11;;;;;;;1.92;0.70;;;;;;;9.84;67.45;99439.72;10517598;28;20446;-69
2023/11/20 07:53:13;;;;;;;2.00;0.63;;;;;;;9.71;67.84;99451.91;10499522;28;20629;-71
2023/11/20 07:58:15;;;;;;;1.40;0.98;;;;;;;10.02;67.11;99462.03;10517553;28;20039;-69
2023/11/20 08:03:17;;;;;;;1.48;0.43;;;;;;;10.30;66.76;99464.53;10497455;28;20129;-69
2023/11/20 08:08:19;;;;;;;3.08;0.65;;;;;;;10.25;66.49;99467.47;10498198;28;20054;-68
2023/11/20 08:13:21;;;;;;;2.92;0.60;;;;;;;10.22;66.61;99474.66;10517104;28;20185;-69
2023/11/20 08:18:23;;;;;;;4.35;0.88;;;;;;;10.23;66.44;99465.88;10516094;28;20052;-68
2023/11/20 08:23:25;;;;;;;2.70;1.17;;;;;;;10.37;66.17;99465.81;10482939;28;20239;-70
2023/11/20 08:28:27;;;;;;;1.60;0.60;;;;;;;10.70;65.56;99476.63;10515326;28;20058;-69
2023/11/20 08:33:29;;;;;;;0.50;0.47;;;;;;;10.89;64.97;99476.25;10513867;28;20043;-70
2023/11/20 08:38:32;;;;;;;2.47;0.70;;;;;;;11.13;64.12;99464.13;10516626;28;20565;-69
2023/11/20 08:43:35;;;;;;;3.65;0.75;;;;;;;11.31;63.83;99462.84;10515640;28;20615;-71
2023/11/20 08:48:37;;;;;;;5.38;0.77;;;;;;;11.45;63.41;99459.22;10516284;28;20056;-69
2023/11/20 08:53:39;;;;;;;1.70;0.60;;;;;;;11.61;62.82;99471.13;10514681;28;20071;-68
2023/11/20 08:58:41;;;;;;;2.15;0.98;;;;;;;11.58;61.64;99465.28;10515872;28;20063;-69
2023/11/20 09:03:43;;;;;;;0.70;0.57;;;;;;;11.45;62.56;99470.53;10503589;28;20040;-69
2023/11/20 09:08:45;;;;;;;1.73;0.88;;;;;;;11.26;61.77;99467.53;10507833;28;20670;-71
2023/11/20 09:13:48;;;;;;;1.70;0.90;;;;;;;11.26;62.56;99467.53;10488176;28;20066;-70
2023/11/20 09:18:50;;;;;;;4.43;0.75;;;;;;;11.13;62.96;99470.16;10507242;28;20036;-68
2023/11/20 09:23:52;;;;;;;2.50;0.80;;;;;;;11.11;62.97;99471.22;10507849;28;20051;-69
2023/11/20 09:28:54;;;;;;;0.68;0.50;;;;;;;10.97;63.49;99469.50;10492393;28;20051;-68
2023/11/20 09:33:59;;;;;;;3.28;1.20;;;;;;;10.82;64.16;99467.97;10463092;28;20048;-69
2023/11/20 09:39:01;;;;;;;1.90;0.55;;;;;;;10.71;64.81;99462.59;10506909;28;20070;-69
2023/11/20 09:44:06;;;;;;;2.72;0.65;;;;;;;10.78;65.08;99457.81;10495047;28;20492;-68
2023/11/20 09:49:11;;;;;;;0.77;0.52;;;;;;;11.07;64.95;99460.13;10517890;28;20032;-67
2023/11/20 09:54:15;;;;;;;1.02;0.55;;;;;;;11.15;64.79;99455.19;10515698;28;20075;-70
2023/11/20 09:59:19;;;;;;;0.55;0.43;;;;;;;11.12;64.93;99455.41;10497734;28;20048;-68
2023/11/20 10:04:23;;;;;;;2.47;1.00;;;;;;;11.24;64.97;99451.94;10496729;28;20469;-70
2023/11/20 10:09:27;;;;;;;0.68;0.50;;;;;;;10.95;65.15;99445.22;10514448;28;20414;-69
2023/11/20 10:14:30;;;;;;;1.00;0.70;;;;;;;11.01;65.30;99454.47;10498953;28;20044;-70
2023/11/20 10:19:32;;;;;;;0.63;0.60;;;;;;;11.11;64.88;99440.66;10515967;28;20058;-69
2023/11/20 10:24:38;;;;;;;0.93;0.60;;;;;;;11.37;64.21;99440.59;10517069;28;20499;-69
2023/11/20 10:29:40;;;;;;;0.93;0.47;;;;;;;11.25;64.57;99431.84;10514290;28;20048;-69
2023/11/20 10:34:42;;;;;;;1.67;0.57;;;;;;;11.54;64.40;99417.50;10516107;28;20051;-69
2023/11/20 10:39:44;;;;;;;1.42;0.93;;;;;;;11.78;63.63;99409.69;10514756;28;20113;-69
2023/11/20 10:44:46;;;;;;;1.83;1.27;;;;;;;12.12;62.88;99398.38;10516562;28;20044;-68
2023/11/20 10:49:50;;;;;;;3.65;1.20;;;;;;;12.08;62.70;99386.44;10515258;28;20388;-69
2023/11/20 10:54:52;;;;;;;3.15;1.60;;;;;;;11.91;62.76;99385.06;10514305;28;20450;-69
2023/11/20 10:59:56;;;;;;;2.70;1.67;;;;;;;11.84;62.59;99381.25;10511993;28;20063;-69
2023/11/20 11:05:06;;;;;;;1.80;1.40;;;;;;;11.98;62.30;99388.09;10487622;28;20048;-70
2023/11/20 11:10:14;;;;;;;1.17;0.88;;;;;;;11.83;62.02;99387.41;10495921;28;20044;-69
2023/11/20 11:15:16;;;;;;;1.50;1.10;;;;;;;12.12;62.00;99373.00;10513549;28;20471;-69
2023/11/20 11:20:28;;;;;;;1.75;0.85;;;;;;;12.05;60.48;99365.69;10506637;28;20953;-69
2023/11/20 11:25:37;;;;;;;2.63;0.80;;;;;;;12.18;60.89;99360.38;10513708;28;20063;-69
2023/11/20 11:30:44;;;;;;;3.17;1.25;;;;;;;12.06;60.97;99364.75;10512940;28;20075;-67
2023/11/20 11:36:08;;;;;;;1.30;0.80;;;;;;;12.04;60.45;99350.94;10512804;28;20052;-67
2023/11/20 11:41:42;;;;;;;2.85;1.27;;;;;;;11.84;60.66;99338.50;10512808;28;20048;-66
2023/11/20 11:46:52;;;;;;;2.28;0.93;;;;;;;11.77;60.97;99342.50;10513990;28;20048;-67
2023/11/20 11:52:08;;;;;;;3.42;1.23;;;;;;;11.75;60.78;99340.00;10511541;28;20082;-67
2023/11/20 11:57:21;;;;;;;0.75;0.60;;;;;;;11.67;61.45;99333.66;10512307;28;20043;-66
2023/11/20 12:02:57;;;;;;;1.02;0.60;;;;;;;11.86;61.80;99320.88;10509988;28;20044;-67
2023/11/20 12:08:03;;;;;;;2.47;1.05;;;;;;;11.84;61.43;99313.13;10511679;28;20059;-66
2023/11/20 12:13:10;;;;;;;3.05;0.98;;;;;;;11.81;61.75;99310.72;10510860;28;20063;-66
2023/11/20 12:18:24;;;;;;;1.15;0.63;;;;;;;11.67;62.00;99310.06;10510886;28;20135;-66
2023/11/20 12:23:30;;;;;;;2.25;1.30;;;;;;;11.76;62.09;99305.00;10510123;28;20048;-67
2023/11/20 12:28:36;;;;;;;1.27;0.60;;;;;;;11.93;62.06;99314.19;10513223;28;20051;-66
2023/11/20 12:33:45;;;;;;;1.13;0.60;;;;;;;11.90;61.75;99310.06;10511231;28;20601;-67
2023/11/20 12:38:49;;;;;;;1.35;0.77;;;;;;;11.81;61.85;99304.63;10506815;28;20200;-66
2023/11/20 12:43:52;;;;;;;0.60;0.60;;;;;;;11.73;62.28;99294.75;10511808;28;20039;-66
2023/11/20 12:48:54;;;;;;;0.95;0.60;;;;;;;11.60;62.48;99290.53;10510123;28;20504;-66
2023/11/20 12:53:57;;;;;;;2.42;0.80;;;;;;;11.63;62.32;99269.34;10492735;28;20048;-66
2023/11/20 12:58:59;;;;;;;1.55;0.82;;;;;;;11.59;62.13;99265.28;10510308;28;20059;-66
2023/11/20 13:04:04;;;;;;;3.75;0.70;;;;;;;11.43;62.64;99257.72;10503106;28;20505;-66
2023/11/20 13:09:07;;;;;;;0.77;0.77;;;;;;;11.81;62.23;99253.09;10508954;28;20589;-66
2023/11/20 13:14:12;;;;;;;1.48;1.23;;;;;;;12.06;61.77;99244.19;10509800;28;20056;-67
2023/11/20 13:19:37;;;;;;;0.47;0.47;;;;;;;12.00;61.41;99248.13;10518611;28;20166;-67
2023/11/20 13:24:47;;;;;;;2.90;1.60;;;;;;;12.07;61.06;99238.84;10519833;28;20044;-66
2023/11/20 13:30:15;;;;;;;4.03;1.10;;;;;;;12.22;60.64;99234.19;10519421;28;20044;-67
2023/11/20 13:35:18;;;;;;;2.85;1.08;;;;;;;12.26;60.33;99243.50;10519458;28;20101;-66
2023/11/20 13:40:20;;;;;;;1.02;0.93;;;;;;;12.17;60.21;99238.13;10500256;28;20154;-67
2023/11/20 13:45:24;;;;;;;1.80;1.00;;;;;;;12.03;59.96;99226.06;10517415;28;20059;-67
2023/11/20 13:50:26;;;;;;;1.65;0.82;;;;;;;11.82;59.92;99228.56;10517750;28;20046;-67
2023/11/20 13:55:28;;;;;;;0.70;0.65;;;;;;;11.71;59.62;99217.22;10515585;28;20059;-67
2023/11/20 14:00:30;;;;;;;2.60;0.88;;;;;;;11.61;59.64;99224.09;10516076;28;20140;-67
2023/11/20 14:05:32;;;;;;;2.17;1.15;;;;;;;11.66;59.65;99208.88;10516762;28;20106;-67
2023/11/20 14:10:36;;;;;;;1.90;0.82;;;;;;;11.59;59.40;99215.53;10517869;28;20048;-66
2023/11/20 14:15:39;;;;;;;3.20;1.10;;;;;;;11.56;59.27;99210.53;10512427;28;20411;-67
2023/11/20 14:20:41;;;;;;;0.85;0.73;;;;;;;11.44;59.35;99216.69;10513099;28;20042;-67
2023/11/20 14:25:43;;;;;;;1.67;0.75;;;;;;;11.24;59.36;99218.13;10517489;28;20050;-66
2023/11/20 14:31:06;;;;;;;3.47;0.73;;;;;;;11.04;59.41;99219.63;10512748;28;20583;-67
2023/11/20 14:36:10;;;;;;;2.20;0.65;;;;;;;11.03;59.10;99228.34;10516361;28;20040;-67
2023/11/20 14:41:13;;;;;;;0.32;0.32;;;;;;;10.88;58.75;99223.41;10515294;28;20036;-66
2023/11/20 14:46:17;;;;;;;3.17;0.80;;;;;;;10.97;59.08;99225.38;10493373;28;20123;-67
2023/11/20 14:51:20;;;;;;;4.25;0.80;;;;;;;10.87;59.42;99221.72;10511861;28;20160;-66
2023/11/20 14:56:23;;;;;;;5.22;1.23;;;;;;;11.02;59.45;99220.63;10513677;28;20051;-67
2023/11/20 15:01:26;;;;;;;10.80;5.70;;;;;;;11.14;59.21;99210.13;10495582;28;20048;-67
2023/11/20 15:06:28;;;;;;;3.17;2.05;;;;;;;11.25;59.70;99217.22;10512909;28;20056;-67
2023/11/20 15:11:30;;;;;;;2.03;1.27;;;;;;;11.28;59.74;99215.19;10510542;28;20048;-67
2023/11/20 15:16:32;;;;;;;2.17;1.15;;;;;;;11.35;59.24;99217.34;10514285;28;20049;-67
2023/11/20 15:21:34;;;;;;;4.57;2.08;;;;;;;11.07;59.84;99229.84;10513071;28;20047;-67
2023/11/20 15:26:37;;;;;;;4.38;1.30;;;;;;;10.72;60.77;99234.16;10497109;28;20144;-67
2023/11/20 15:31:39;;;;;;;1.38;1.00;;;;;;;10.54;61.58;99235.44;10512927;28;20523;-67
2023/11/20 15:36:41;;;;;;;1.88;1.20;;;;;;;10.55;61.42;99233.66;10513027;28;20074;-67
2023/11/20 15:41:43;;;;;;;2.33;1.20;;;;;;;10.54;62.06;99230.22;10512123;28;20132;-66
2023/11/20 15:46:45;;;;;;;1.60;0.88;;;;;;;10.54;62.00;99225.00;10494344;28;20056;-67
2023/11/20 15:51:47;;;;;;;1.58;0.93;;;;;;;10.45;62.33;99230.84;10508183;28;20079;-67
2023/11/20 15:56:50;;;;;;;3.35;1.35;;;;;;;10.47;62.61;99235.03;10494622;28;20075;-67
2023/11/20 16:01:52;;;;;;;4.75;1.55;;;;;;;10.34;62.80;99233.38;10511373;28;20052;-61
2023/11/20 16:06:57;;;;;;;2.65;1.60;;;;;;;10.31;62.94;99236.22;10509885;28;20040;-65
2023/11/20 16:11:59;;;;;;;4.60;1.70;;;;;;;10.24;63.21;99242.78;10511867;28;20047;-65
2023/11/20 16:17:01;;;;;;;5.28;2.35;;;;;;;10.23;63.50;99235.91;10494106;28;21313;-65
2023/11/20 16:22:05;;;;;;;2.55;1.38;;;;;;;10.18;63.74;99238.00;10511245;28;20113;-65
2023/11/20 16:27:07;;;;;;;2.17;1.45;;;;;;;10.17;63.81;99241.56;10511181;28;20039;-65
2023/11/20 16:32:09;;;;;;;4.07;1.50;;;;;;;10.20;64.06;99233.50;10509590;28;20042;-65
2023/11/20 16:37:11;;;;;;;3.05;1.40;;;;;;;10.33;63.80;99242.19;10511123;28;20048;-65
2023/11/20 16:42:15;;;;;;;4.57;2.22;;;;;;;10.31;63.94;99237.06;10513149;28;20051;-65
2023/11/20 16:47:17;;;;;;;3.40;1.52;;;;;;;10.28;64.20;99245.09;10496790;28;20043;-65
2023/11/20 16:52:19;;;;;;;2.42;1.20;;;;;;;10.33;64.19;99242.19;10513610;28;20092;-65
2023/11/20 16:57:21;;;;;;;2.90;1.50;;;;;;;10.25;64.82;99247.09;10514777;28;20047;-65
2023/11/20 17:02:25;;;;;;;1.90;1.17;;;;;;;9.95;65.60;99257.03;10514454;28;20079;-65
2023/11/20 17:07:27;;;;;;;1.67;1.13;;;;;;;9.96;65.57;99251.69;10496982;28;20071;-65
2023/11/20 17:12:29;;;;;;;2.47;0.90;;;;;;;9.92;65.07;99265.06;10496813;28;20048;-66
2023/11/20 17:17:32;;;;;;;1.55;1.05;;;;;;;9.96;65.11;99248.25;10495466;28;21056;-65
2023/11/20 17:22:34;;;;;;;2.78;1.33;;;;;;;10.08;65.08;99250.03;10513617;28;20044;-65
2023/11/20 17:27:37;;;;;;;0.82;0.82;;;;;;;10.09;65.06;99246.47;10514427;28;20481;-66
2023/11/20 17:32:40;;;;;;;3.72;2.03;;;;;;;10.05;65.30;99251.09;10495631;28;20067;-65
2023/11/20 17:37:43;;;;;;;13.73;1.80;;;;;;;9.98;65.20;99249.81;10496561;28;20131;-65
2023/11/20 17:42:45;;;;;;;1.70;0.90;;;;;;;9.87;65.04;99247.09;10486627;28;20480;-66
2023/11/20 17:47:47;;;;;;;1.15;0.90;;;;;;;9.75;65.26;99249.72;10505623;28;20042;-66
2023/11/20 17:52:49;;;;;;;1.17;1.00;;;;;;;9.74;65.30;99248.88;10507612;28;20052;-66
2023/11/20 17:57:52;;;;;;;2.35;1.45;;;;;;;9.55;65.08;99245.75;10508216;28;20052;-66
2023/11/20 18:02:55;;;;;;;2.63;1.55;;;;;;;9.45;65.46;99248.16;10514718;28;20040;-65
2023/11/20 18:07:58;;;;;;;1.67;1.00;;;;;;;9.32;65.52;99251.69;10520418;28;20059;-65
2023/11/20 18:13:00;;;;;;;1.83;1.00;;;;;;;9.46;65.66;99247.22;10519987;28;20131;-66
2023/11/20 18:18:04;;;;;;;1.52;1.10;;;;;;;9.55;65.38;99246.63;10520196;28;20760;-65
2023/11/20 18:23:07;;;;;;;1.60;0.90;;;;;;;9.45;65.26;99245.53;10520858;28;20048;-66
2023/11/20 18:28:09;;;;;;;3.67;1.20;;;;;;;9.53;65.61;99248.50;10520927;28;20155;-64
2023/11/20 18:33:11;;;;;;;2.60;1.40;;;;;;;9.57;65.43;99238.66;10520700;28;20126;-66
2023/11/20 18:38:15;;;;;;;2.60;1.40;;;;;;;9.67;65.16;99241.56;10514951;28;20488;-66
2023/11/20 18:43:18;;;;;;;2.78;1.48;;;;;;;9.66;65.26;99238.09;10516779;28;20050;-65
2023/11/20 18:48:20;;;;;;;4.07;2.17;;;;;;;9.61;65.28;99242.75;10477238;28;20071;-66
2023/11/20 18:53:22;;;;;;;5.53;2.05;;;;;;;9.48;65.57;99241.91;10514638;28;20595;-66
2023/11/20 18:58:24;;;;;;;6.95;1.70;;;;;;;9.44;65.70;99233.41;10492421;28;20440;-65
2023/11/20 19:03:29;;;;;;;1.52;1.05;;;;;;;9.44;65.99;99236.03;10514890;28;20059;-66
2023/11/20 19:08:32;;;;;;;1.30;1.00;;;;;;;9.46;65.90;99249.00;10499392;28;20101;-65
2023/11/20 19:13:34;;;;;;;2.97;1.10;;;;;;;9.44;65.76;99246.47;10513574;28;20048;-66
2023/11/20 19:18:38;;;;;;;1.55;1.10;;;;;;;9.37;65.74;99237.38;10516046;28;20040;-65
2023/11/20 19:23:40;;;;;;;1.20;1.00;;;;;;;9.42;65.58;99237.09;10517323;28;20382;-66
2023/11/20 19:28:43;;;;;;;1.45;1.00;;;;;;;9.33;65.78;99235.06;10515284;28;20466;-66
2023/11/20 19:33:46;;;;;;;1.95;1.33;;;;;;;9.32;65.60;99233.41;10513438;28;20116;-65
2023/11/20 19:38:51;;;;;;;2.55;1.52;;;;;;;9.24;65.93;99225.25;10516667;28;20047;-65
2023/11/20 19:43:53;;;;;;;2.88;0.93;;;;;;;9.39;65.81;99225.06;10512920;28;20066;-66
2023/11/20 19:48:55;;;;;;;1.45;1.00;;;;;;;9.48;66.03;99228.84;10516361;28;20159;-66
2023/11/20 19:53:59;;;;;;;3.03;1.40;;;;;;;9.57;65.97;99216.03;10497553;28;20044;-66
2023/11/20 19:59:02;;;;;;;4.43;2.00;;;;;;;9.51;66.03;99226.03;10495417;28;20498;-66
2023/11/20 20:04:06;;;;;;;3.35;1.80;;;;;;;9.56;66.04;99213.53;10509186;28;20052;-66
2023/11/20 20:09:09;;;;;;;3.78;2.20;;;;;;;9.57;65.89;99208.19;10501952;28;20077;-66
2023/11/20 20:14:11;;;;;;;3.38;1.90;;;;;;;9.54;65.93;99207.56;10512751;28;20503;-67
2023/11/20 20:19:13;;;;;;;2.60;1.67;;;;;;;9.44;66.01;99209.13;10508500;28;20051;-65
2023/11/20 20:24:16;;;;;;;2.90;1.52;;;;;;;9.18;66.56;99208.22;10511555;28;20174;-66
2023/11/20 20:29:18;;;;;;;4.57;2.13;;;;;;;9.08;66.96;99208.91;10493020;28;20133;-65
2023/11/20 20:34:20;;;;;;;3.03;1.40;;;;;;;9.09;67.01;99208.81;10513316;28;20109;-66
2023/11/20 20:39:22;;;;;;;3.05;1.60;;;;;;;8.99;67.18;99215.56;10476806;28;20450;-66
2023/11/20 20:44:24;;;;;;;3.85;1.63;;;;;;;9.06;66.90;99211.63;10512629;28;20063;-65
2023/11/20 20:49:26;;;;;;;2.30;1.23;;;;;;;9.10;67.05;99207.88;10494724;28;20056;-65
2023/11/20 20:54:29;;;;;;;2.10;1.33;;;;;;;9.11;66.71;99204.34;10511848;28;20099;-66
2023/11/20 20:59:31;;;;;;;1.73;1.30;;;;;;;9.13;66.77;99197.25;10510654;28;20106;-65
2023/11/20 21:04:33;;;;;;;3.03;1.50;;;;;;;9.06;66.93;99209.00;10510555;28;20048;-66
2023/11/20 21:09:35;;;;;;;2.25;1.40;;;;;;;9.15;67.17;99207.59;10512367;28;20565;-66
2023/11/20 21:14:37;;;;;;;4.40;1.90;;;;;;;9.12;67.11;99199.94;10508159;28;20056;-67
2023/11/20 21:19:39;;;;;;;2.75;1.60;;;;;;;9.17;67.08;99197.88;10491556;28;20050;-66
2023/11/20 21:24:41;;;;;;;4.15;1.60;;;;;;;9.23;66.95;99211.38;10510778;28;20044;-66
2023/11/20 21:29:46;;;;;;;4.13;1.75;;;;;;;9.13;67.04;99201.63;10509584;28;20044;-67
2023/11/20 21:34:48;;;;;;;1.75;1.27;;;;;;;9.25;67.09;99201.66;10512901;28;20048;-66
2023/11/20 21:40:04;;;;;;;2.72;1.70;;;;;;;9.29;66.99;99202.28;10516663;28;20044;-66
2023/11/20 21:45:07;;;;;;;5.18;2.45;;;;;;;9.39;66.79;99200.75;10518084;28;20108;-66
2023/11/20 21:50:09;;;;;;;3.75;1.80;;;;;;;9.51;66.55;99184.25;10513132;28;20036;-66
2023/11/20 21:55:11;;;;;;;4.30;2.25;;;;;;;9.61;66.37;99187.94;10510759;28;20067;-67
2023/11/20 22:00:14;;;;;;;4.25;2.28;;;;;;;9.49;66.58;99181.75;10509352;28;20125;-67
2023/11/20 22:05:16;;;;;;;4.43;2.30;;;;;;;9.53;66.67;99178.00;10468410;28;20606;-66
2023/11/20 22:10:20;;;;;;;4.30;2.20;;;;;;;9.62;66.30;99173.94;10518038;28;20532;-66
2023/11/20 22:15:22;;;;;;;3.38;2.03;;;;;;;9.51;66.51;99179.03;10519714;28;20066;-65
2023/11/20 22:20:26;;;;;;;4.68;2.40;;;;;;;9.41;66.57;99183.22;10518055;28;20044;-66
2023/11/20 22:25:28;;;;;;;3.45;2.05;;;;;;;9.46;66.45;99181.94;10519388;28;20415;-66
2023/11/20 22:30:31;;;;;;;8.98;3.35;;;;;;;9.47;66.56;99193.25;10519749;28;20044;-66
2023/11/20 22:35:33;;;;;;;5.72;3.35;;;;;;;9.46;66.61;99197.63;10519381;28;20052;-67
2023/11/20 22:40:35;;;;;;;5.30;2.75;;;;;;;9.35;66.57;99201.88;10518160;28;20049;-66
2023/11/20 22:45:37;;;;;;;5.70;3.30;;;;;;;9.30;66.75;99201.38;10520982;28;20389;-66
2023/11/20 22:50:39;;;;;;;7.40;3.10;;;;;;;9.24;66.80;99207.00;10510710;28;20416;-67
2023/11/20 22:55:42;;;;;;;8.45;3.72;;;;;;;9.21;66.86;99213.25;10515415;28;20094;-66
2023/11/20 23:00:49;;;;;;;7.53;3.33;;;;;;;9.18;67.12;99216.03;10509235;28;20125;-66
2023/11/20 23:05:54;;;;;;;6.22;3.35;;;;;;;9.29;67.06;99216.19;10511126;28;20052;-66
2023/11/20 23:10:56;;;;;;;5.60;2.83;;;;;;;9.42;66.90;99213.59;10513220;28;20279;-66
2023/11/20 23:15:58;;;;;;;6.03;3.22;;;;;;;9.51;66.74;99220.81;10510677;28;20062;-66
2023/11/20 23:21:05;;;;;;;6.28;3.53;;;;;;;9.56;66.72;99213.53;10490331;28;20051;-66
2023/11/20 23:26:07;;;;;;;38.05;3.88;;;;;;;9.51;66.64;99226.88;10482453;28;21604;-66
2023/11/20 23:31:09;;;;;;;5.80;3.30;;;;;;;9.54;66.67;99224.03;10491169;28;20043;-66
2023/11/20 23:36:13;;;;;;;6.50;3.65;;;;;;;9.52;66.85;99228.53;10512923;28;20491;-65